Latest Weather Observations for Yunta

IDS60801

Issued at 8:01 pm CDT Tuesday 28 February 2017 (issued every 30 minutes, with the page automatically refreshed every 10 minutes)

About weather observations | Map of weather stations | Latest weather observations for SA | Other Formats
Station Details ID: 020062 Name: YUNTA AIRSTRIP Lat: -32.57 Lon: 139.56 Height: 300.0 m
Data from the previous 72 hours. | See also: Recent months at Yunta
Date/Time
CDT
Temp
°C
App
Temp
°C
Dew
Point
°C
Rel
Hum
%
Delta-T
°C
Wind Press
QNH
hPa
Press
MSL
hPa
Rain since
9am
mm
Dir  Spd
km/h
Gust
km/h
Spd
kts
Gust
kts
28/08:00pm 32.1 28.0 2.2 15 15.2 ESE 13 17 7 9 1015.5 1013.9 0.0
28/07:30pm 33.1 29.0 2.1 14 15.9 SE 13 20 7 11 1015.1 1013.6 0.0
28/07:00pm 34.0 29.6 2.8 14 16.2 SE 15 19 8 10 1015.0 1013.5 0.0
28/06:30pm 34.7 29.8 2.3 13 16.8 ESE 17 26 9 14 1014.9 1013.4 0.0
28/06:00pm 34.0 28.7 1.7 13 16.5 ESE 19 30 10 16 1015.0 1013.5 0.0
28/05:30pm 34.9 30.1 2.4 13 16.9 SE 17 32 9 17 1014.8 1013.3 0.0
28/05:00pm 35.8 30.7 3.1 13 17.3 SSE 19 32 10 17 1014.8 1013.3 0.0
28/04:30pm 35.0 30.6 2.5 13 16.9 ESE 15 32 8 17 1015.0 1013.5 0.0
28/04:00pm 35.3 31.1 3.8 14 16.8 ESE 15 28 8 15 1015.2 1013.7 0.0
28/03:30pm 34.8 29.8 3.4 14 16.6 SE 19 61 10 33 1015.6 1014.0 0.0
28/03:00pm 35.4 30.3 3.9 14 16.8 SE 20 39 11 21 1015.8 1014.2 0.0
28/02:30pm 35.4 30.1 4.8 15 16.6 SE 22 33 12 18 1016.2 1014.7 0.0
28/02:00pm 34.1 29.7 4.7 16 15.8 ESE 17 30 9 16 1016.4 1014.9 0.0
28/01:30pm 34.8 31.6 5.3 16 16.0 E 11 22 6 12 1016.6 1015.1 0.0
28/01:00pm 33.6 30.4 5.2 17 15.3 SE 11 20 6 11 1017.0 1015.5 0.0
28/12:30pm 33.9 31.6 4.6 16 15.7 SE 6 13 3 7 1017.3 1015.8 0.0
28/12:00pm 34.0 31.8 5.5 17 15.5 E 6 17 3 9 1017.6 1016.1 0.0
28/11:30am 33.5 31.1 5.1 17 15.3 ENE 7 15 4 8 1018.0 1016.5 0.0
28/11:00am 32.9 30.4 4.6 17 15.1 N 7 13 4 7 1018.3 1016.8 0.0
28/10:30am 32.3 28.6 4.2 17 14.8 NNE 13 17 7 9 1018.4 1016.9 0.0
28/10:00am 31.0 27.6 3.9 18 14.1 NNE 11 17 6 9 1018.4 1016.9 0.0
28/09:30am 30.9 29.2 3.8 18 14.1 NW 2 11 1 6 1018.3 1016.8 0.0
28/09:00am 29.1 26.4 3.9 20 13.0 E 7 9 4 5 1018.3 1016.8 0.0
28/08:30am 28.1 26.1 4.4 22 12.2 E 4 9 2 5 1018.2 1016.7 0.0
28/08:00am 24.6 22.2 4.4 27 10.2 SSW 6 9 3 5 1018.0 1016.5 0.0
28/07:30am 23.1 21.5 4.6 30 9.3 S 2 4 1 2 1017.8 1016.3 0.0
28/07:00am 22.9 20.5 4.4 30 9.2 E 6 9 3 5 1017.5 1016.0 0.0
28/06:30am 23.2 20.3 4.7 30 9.3 ENE 9 13 5 7 1017.2 1015.7 0.0
28/06:00am 23.0 19.8 5.0 31 9.1 E 11 15 6 8 1016.8 1015.3 0.0
28/05:30am 23.6 20.4 5.0 30 9.4 E 11 15 6 8 1016.6 1015.1 0.0
28/05:00am 24.4 21.0 5.7 30 9.7 ENE 13 17 7 9 1016.3 1014.8 0.0
28/04:30am 25.0 21.6 5.7 29 10.0 NE 13 19 7 10 1016.2 1014.7 0.0
28/04:00am 25.3 21.9 6.0 29 10.1 NE 13 17 7 9 1016.2 1014.7 0.0
28/03:30am 25.6 22.3 6.3 29 10.1 NE 13 19 7 10 1016.2 1014.7 0.0
28/03:00am 26.3 23.0 6.4 28 10.5 NE 13 19 7 10 1016.2 1014.7 0.0
28/02:30am 26.5 22.8 6.5 28 10.6 NE 15 20 8 11 1016.2 1014.7 0.0
28/02:00am 26.9 23.3 6.9 28 10.7 NE 15 19 8 10 1016.4 1014.9 0.0
28/01:30am 27.3 23.7 6.7 27 11.0 ENE 15 22 8 12 1016.5 1015.0 0.0
28/01:00am 26.4 24.0 6.9 29 10.4 NE 9 13 5 7 1016.4 1014.9 0.0
28/12:30am 26.6 24.5 6.6 28 10.6 ENE 7 11 4 6 1016.4 1014.9 0.0
28/12:00am 27.7 24.9 7.0 27 11.1 ENE 11 13 6 7 1016.4 1014.9 0.0
 
Date/Time
CDT
Temp
°C
App
Temp
°C
Dew
Point
°C
Rel
Hum
%
Delta-T
°C
Wind Press
QNH
hPa
Press
MSL
hPa
Rain since
9am
mm
Dir  Spd
km/h
Gust
km/h
Spd
kts
Gust
kts
27/11:30pm 28.1 25.3 6.8 26 11.4 ENE 11 15 6 8 1016.3 1014.8 0.0
27/11:00pm 28.3 25.5 7.0 26 11.5 NE 11 15 6 8 1016.4 1014.9 0.0
27/10:30pm 27.7 25.3 7.0 27 11.1 ENE 9 11 5 6 1016.2 1014.7 0.0
27/10:00pm 27.5 25.8 7.4 28 10.9 NE 6 9 3 5 1016.2 1014.7 0.0
27/09:30pm 27.3 25.3 7.2 28 10.8 ENE 7 9 4 5 1015.9 1014.3 0.0
27/09:00pm 28.1 26.2 7.4 27 11.2 ENE 7 9 4 5 1015.6 1014.0 0.0
27/08:30pm 29.7 27.4 7.6 25 12.1 ENE 9 11 5 6 1015.2 1013.7 0.0
27/08:00pm 31.5 28.2 7.9 23 13.2 ENE 15 20 8 11 1015.0 1013.5 0.0
27/07:30pm 32.3 28.2 7.9 22 13.7 ENE 19 24 10 13 1014.7 1013.2 0.0
27/07:00pm 32.9 28.2 7.7 21 14.1 NE 22 28 12 15 1014.6 1013.1 0.0
27/06:30pm 33.9 29.4 7.0 19 15.0 ENE 20 39 11 21 1014.2 1012.7 0.0
27/06:28pm 33.8 29.5 7.0 19 14.9 ENE 19 39 10 21 1014.1 1012.6 0.0
27/06:00pm 33.9 30.7 7.0 19 15.0 NNE 13 19 7 10 1014.1 1012.6 0.0
27/05:30pm 34.1 30.0 6.4 18 15.3 NNE 17 22 9 12 1013.9 1012.4 0.0
27/05:00pm 35.8 32.8 6.1 16 16.4 NE 11 26 6 14 1013.9 1012.4 0.0
27/04:30pm 34.4 30.6 5.8 17 15.6 NE 15 20 8 11 1014.1 1012.6 0.0
27/04:00pm 33.9 31.1 7.0 19 15.0 E 11 19 6 10 1014.4 1012.9 0.0
27/03:30pm 34.6 30.6 6.8 18 15.5 NE 17 28 9 15 1014.7 1013.2 0.0
27/03:00pm 35.0 30.7 7.9 19 15.4 NE 20 30 11 16 1015.1 1013.6 0.0
27/02:30pm 35.5 32.1 9.1 20 15.3 NE 17 28 9 15 1015.5 1013.9 0.0
27/02:00pm 33.5 30.9 9.5 23 13.9 NE 13 24 7 13 1015.9 1014.3 0.0
27/01:30pm 34.0 30.3 9.3 22 14.2 NE 19 30 10 16 1016.4 1014.9 0.0
27/01:00pm 33.6 31.5 9.6 23 13.9 NNE 11 24 6 13 1016.5 1015.0 0.0
27/12:30pm 31.9 29.7 9.4 25 12.9 ESE 11 17 6 9 1016.9 1015.4 0.0
27/12:00pm 30.3 28.8 9.2 27 11.9 ESE 7 13 4 7 1017.4 1015.9 0.0
27/11:30am 27.1 26.0 8.5 31 10.2 S 4 9 2 5 1017.8 1016.3 0.0
27/11:00am 25.3 23.8 8.3 34 9.2 SSE 6 13 3 7 1018.1 1016.6 0.0
27/10:30am 24.0 22.6 8.8 38 8.3 S 6 11 3 6 1018.2 1016.7 0.0
27/10:00am 21.6 19.9 8.5 43 7.0 SSE 7 13 4 7 1018.3 1016.8 0.0
27/09:30am 20.6 18.6 8.6 46 6.4 S 9 15 5 8 1018.2 1016.7 0.0
27/09:00am 19.2 17.5 8.5 50 5.6 SSE 7 11 4 6 1018.1 1016.6 0.0
27/08:30am 18.0 16.4 8.6 54 4.9 S 7 9 4 5 1018.0 1016.5 0.0
27/08:00am 16.3 13.8 8.3 59 4.1 S 11 13 6 7 1017.8 1016.3 0.0
27/07:30am 14.7 13.4 7.5 62 3.6 SSW 4 7 2 4 1017.8 1016.3 0.0
27/07:00am 14.3 12.6 7.4 63 3.4 SSW 6 9 3 5 1017.7 1016.2 0.0
27/06:30am 14.6 11.9 7.2 61 3.7 SSW 11 15 6 8 1017.5 1016.0 0.0
27/06:00am 14.0 11.1 6.6 61 3.6 SW 11 13 6 7 1017.4 1015.9 0.0
27/05:30am 13.9 10.8 5.5 57 4.0 SW 11 11 6 6 1017.4 1015.9 0.0
27/05:00am 13.3 10.2 3.7 52 4.4 SW 9 9 5 5 1017.4 1015.9 0.0
27/04:30am 13.3 10.3 1.9 46 5.0 SW 7 9 4 5 1017.3 1015.8 0.0
27/04:00am 13.7 10.6 1.4 43 5.4 SSW 7 9 4 5 1017.2 1015.7 0.0
27/03:30am 13.9 10.4 -1.3 35 6.3 WSW 7 9 4 5 1017.3 1015.8 0.0
27/03:00am 14.2 9.8 -2.2 32 6.6 SW 11 13 6 7 1017.5 1016.0 0.0
27/02:30am 13.4 10.8 -1.7 35 6.1 S 2 4 1 2 1017.6 1016.1 0.0
27/02:00am 13.0 9.3 -2.9 33 6.3 SW 7 11 4 6 1017.7 1016.2 0.0
27/01:30am 13.8 11.1 -2.6 32 6.6 WNW 2 4 1 2 1017.9 1016.4 0.0
27/01:00am 15.1 11.7 -1.9 31 7.0 W 6 7 3 4 1017.8 1016.3 0.0
27/12:30am 16.5 13.5 -1.6 29 7.6 NNW 4 6 2 3 1017.8 1016.3 0.0
27/12:00am 19.1 15.4 -0.3 27 8.6 SW 9 11 5 6 1017.6 1016.1 0.0
 
Date/Time
CDT
Temp
°C
App
Temp
°C
Dew
Point
°C
Rel
Hum
%
Delta-T
°C
Wind Press
QNH
hPa
Press
MSL
hPa
Rain since
9am
mm
Dir  Spd
km/h
Gust
km/h
Spd
kts
Gust
kts
26/11:30pm 19.1 15.7 -0.8 26 8.7 SSW 7 9 4 5 1017.5 1016.0 0.0
26/11:00pm 21.4 16.9 0.0 24 9.7 S 13 15 7 8 1017.5 1016.0 0.0
26/10:30pm 21.9 17.1 -0.1 23 10.0 SSE 15 17 8 9 1017.3 1015.8 0.0
26/10:00pm 21.6 17.8 -1.0 22 10.1 S 9 11 5 6 1017.4 1015.9 0.0
26/09:30pm 22.8 19.0 -0.6 21 10.6 S 9 11 5 6 1017.3 1015.8 0.0
26/09:00pm 23.7 19.5 -0.6 20 11.1 S 11 13 6 7 1017.0 1015.5 0.0
26/08:30pm 24.3 20.8 -1.5 18 11.6 SSE 7 9 4 5 1016.8 1015.3 0.0
26/08:00pm 26.2 21.6 -0.8 17 12.5 SSE 13 17 7 9 1016.4 1014.9 0.0
26/07:30pm 27.6 23.0 -1.3 15 13.4 SE 13 17 7 9 1016.0 1014.4 0.0
26/07:00pm 28.3 22.5 -1.7 14 13.9 SE 19 24 10 13 1015.8 1014.2 0.0
26/06:30pm 28.9 24.3 -1.2 14 14.2 SE 13 22 7 12 1015.7 1014.1 0.0
26/06:00pm 28.9 23.5 -1.2 14 14.2 SE 17 24 9 13 1015.6 1014.0 0.0
26/05:30pm 29.5 25.2 -1.8 13 14.6 SE 11 22 6 12 1015.5 1013.9 0.0
26/05:00pm 29.1 25.3 -1.1 14 14.3 SE 9 19 5 10 1015.7 1014.1 0.0
26/04:30pm 28.8 24.2 -1.3 14 14.1 SSE 13 20 7 11 1015.7 1014.1 0.0
26/04:00pm 29.1 24.5 -1.1 14 14.3 SSE 13 24 7 13 1015.8 1014.2 0.0
26/03:30pm 27.5 22.5 -1.4 15 13.4 SE 15 28 8 15 1016.2 1014.7 0.0
26/03:00pm 27.7 23.7 0.5 17 13.1 SE 11 19 6 10 1016.6 1015.1 0.0
26/02:30pm 27.8 23.2 1.3 18 12.9 SE 15 26 8 14 1017.1 1015.6 0.0
26/02:00pm 26.9 21.9 1.3 19 12.4 SE 17 24 9 13 1017.5 1016.0 0.0
26/01:30pm 25.4 21.3 2.2 22 11.3 SE 13 26 7 14 1017.9 1016.4 0.0
26/01:00pm 24.8 19.9 2.3 23 10.9 SE 17 26 9 14 1018.1 1016.6 0.0
26/12:30pm 24.2 19.1 2.9 25 10.4 SSE 19 26 10 14 1018.5 1017.0 0.0
26/12:00pm 22.9 18.5 2.9 27 9.7 SE 15 24 8 13 1019.0 1017.4 0.0
26/11:30am 21.4 17.5 3.6 31 8.6 SE 13 20 7 11 1019.4 1017.9 0.0
26/11:00am 20.2 17.2 4.3 35 7.8 SSE 9 20 5 11 1019.6 1018.1 0.0
26/10:30am 19.2 15.9 4.6 38 7.1 SE 11 19 6 10 1019.8 1018.3 0.0
26/10:00am 17.9 14.8 5.5 44 6.1 SSE 11 19 6 10 1020.0 1018.5 0.0
26/09:30am 16.6 13.1 5.6 48 5.4 SSE 13 19 7 10 1019.8 1018.3 0.0
26/09:00am 15.1 11.9 6.7 57 4.1 SSE 13 19 7 10 1019.8 1018.3 0.0
26/08:30am 13.8 10.7 7.1 64 3.3 S 13 17 7 9 1019.8 1018.3 0.0
26/08:00am 12.7 9.7 7.6 71 2.5 SSW 13 17 7 9 1019.8 1018.3 0.0
26/07:30am 10.6 8.8 7.3 80 1.6 WNW 6 6 3 3 1020.0 1018.5 0.0
26/07:00am 10.3 7.9 7.0 80 1.6 SSW 9 13 5 7 1019.6 1018.1 0.0
26/06:30am 10.4 8.4 7.1 80 1.6 SW 7 9 4 5 1019.3 1017.8 0.0
26/06:00am 10.9 8.2 7.2 78 1.8 SSW 11 13 6 7 1018.8 1017.3 0.0
26/05:30am 11.5 8.8 7.4 76 2.0 SSW 11 13 6 7 1018.6 1017.1 0.0
26/05:00am 12.0 10.2 7.3 73 2.3 SSW 6 9 3 5 1018.4 1016.9 0.0
26/04:30am 12.3 9.9 7.2 71 2.5 S 9 11 5 6 1018.3 1016.8 0.0
26/04:00am 12.9 11.0 7.4 69 2.7 S 7 11 4 6 1018.3 1016.8 0.0
26/03:30am 13.3 11.4 7.5 68 2.9 SSW 7 11 4 6 1018.3 1016.8 0.0
26/03:00am 13.3 11.3 6.9 65 3.1 SSW 7 9 4 5 1018.4 1016.9 0.0
26/02:30am 14.7 12.8 7.5 62 3.6 S 7 9 4 5 1018.8 1017.3 0.0
26/02:00am 15.6 13.4 7.9 60 3.9 S 9 15 5 8 1019.1 1017.6 0.0
26/01:30am 16.3 13.3 7.8 57 4.3 S 13 19 7 10 1019.4 1017.9 0.0
26/01:00am 17.1 14.4 7.2 52 5.0 SSW 11 17 6 9 1019.5 1018.0 0.0
26/12:30am 18.1 14.2 7.2 49 5.5 S 17 24 9 13 1019.4 1017.9 0.0
26/12:00am 19.3 14.6 6.1 42 6.6 SSE 20 28 11 15 1019.5 1018.0 0.0
 
Date/Time
CDT
Temp
°C
App
Temp
°C
Dew
Point
°C
Rel
Hum
%
Delta-T
°C
Wind Press
QNH
hPa
Press
MSL
hPa
Rain since
9am
mm
Dir  Spd
km/h
Gust
km/h
Spd
kts
Gust
kts
25/11:30pm 20.0 15.8 3.7 34 7.9 S 15 20 8 11 1019.5 1018.0 0.0
25/11:00pm 20.3 16.0 3.5 33 8.1 S 15 20 8 11 1019.4 1017.9 0.0
25/10:30pm 20.9 16.7 3.6 32 8.4 S 15 20 8 11 1019.4 1017.9 0.0
25/10:00pm 21.2 17.3 3.4 31 8.6 S 13 17 7 9 1019.3 1017.8 0.0
25/09:30pm 21.7 17.8 3.4 30 8.9 S 13 17 7 9 1019.3 1017.8 0.0
25/09:00pm 22.4 18.1 3.0 28 9.4 S 15 20 8 11 1019.0 1017.4 0.0
25/08:30pm 23.1 18.7 2.6 26 9.9 SSE 15 20 8 11 1018.7 1017.2 0.0

Other Formats:

Comma delimited format used in spreadsheet applications
http://www.bom.gov.au/fwo/IDS60801/IDS60801.94684.axf

JavaScript Object Notation format (JSON) in row-major order
http://www.bom.gov.au/fwo/IDS60801/IDS60801.94684.json